LDSP/SPU METAR and TAF weather

Enter ICAO airport designator
Station Type Date Time Source
LDSP METAR 2022/11/30 23:00 UTC NOAA

LDSP 302300Z AUTO 02006KT 280V080 9999 OVC074/// 10/01 Q1013


Station Type Date Time Source
LDSP Decoded METAR 2022/11/30 23:00 UTC NOAA

Split / Resnik, Croatia (LDSP) 43-32N 016-18E 21M
Nov 30, 2022 - 06:00 PM EST / 2022.11.30 2300 UTC
Wind: from the NNE (020 degrees) at 7 MPH (6 KT) (direction variable):0
Visibility: greater than 7 mile(s):0
Sky conditions: overcast
Temperature: 50 F (10 C)
Dew Point: 33 F (1 C)
Relative Humidity: 53%
Pressure (altimeter): 29.91 in. Hg (1013 hPa)
ob: LDSP 302300Z AUTO 02006KT 280V080 9999 OVC074/// 10/01 Q1013
cycle: 23

Station Type Date Time Source
LDSP TAF 2022/11/30 18:27 UTC NOAA

TAF LDSP 301725Z 3018/0118 05008KT CAVOK TX15/0112Z TN09/0101Z
BECMG 0107/0109 VRB02KT

Example: see airport list